createdAt,value
2023-07-11T00:00:27.512Z,95307.00
2023-07-11T00:01:27.580Z,95307.00
2023-07-11T00:02:27.710Z,95303.00
2023-07-11T00:03:28.159Z,95301.00
2023-07-11T00:04:27.697Z,95301.00
2023-07-11T00:05:27.798Z,95301.00
2023-07-11T00:06:27.820Z,95301.00
2023-07-11T00:07:27.906Z,95303.00
2023-07-11T00:08:27.931Z,95303.00
2023-07-11T00:09:28.039Z,95305.00
2023-07-11T00:10:28.085Z,95303.00
2023-07-11T00:11:28.129Z,95303.00
2023-07-11T00:12:28.165Z,95305.00
2023-07-11T00:13:28.299Z,95305.00
2023-07-11T00:14:28.264Z,95303.00
2023-07-11T00:15:28.333Z,95305.00
2023-07-11T00:16:28.445Z,95303.00
2023-07-11T00:17:28.475Z,95305.00
2023-07-11T00:18:28.520Z,95305.00
2023-07-11T00:19:28.589Z,95305.00
2023-07-11T00:20:28.678Z,95307.00
2023-07-11T00:21:28.739Z,95307.00
2023-07-11T00:22:28.794Z,95309.00
2023-07-11T00:23:28.784Z,95305.00
2023-07-11T00:24:28.901Z,95307.00
2023-07-11T00:25:28.956Z,95309.00
2023-07-11T00:26:29.009Z,95307.00
2023-07-11T00:27:29.039Z,95307.00
2023-07-11T00:28:29.130Z,95309.00
2023-07-11T00:29:29.200Z,95307.00
2023-07-11T00:30:29.280Z,95311.00
2023-07-11T00:31:29.404Z,95309.00
2023-07-11T00:32:29.388Z,95316.00
2023-07-11T00:33:29.429Z,95311.00
2023-07-11T00:34:29.487Z,95311.00
2023-07-11T00:35:29.551Z,95307.00
2023-07-11T00:36:29.607Z,95309.00
2023-07-11T00:37:29.652Z,95309.00
2023-07-11T00:38:29.790Z,95311.00
2023-07-11T00:39:29.789Z,95309.00
2023-07-11T00:40:29.836Z,95307.00
2023-07-11T00:41:29.886Z,95307.00
2023-07-11T00:42:29.958Z,95309.00
2023-07-11T00:43:30.012Z,95309.00
2023-07-11T00:44:30.066Z,95309.00
2023-07-11T00:45:30.123Z,95313.00
2023-07-11T00:46:30.291Z,95311.00
2023-07-11T00:47:30.289Z,95313.00
2023-07-11T00:48:30.347Z,95314.00
2023-07-11T00:49:30.364Z,95313.00
2023-07-11T00:50:30.477Z,95316.00
2023-07-11T00:51:30.521Z,95313.00
2023-07-11T00:52:30.594Z,95314.00
2023-07-11T00:53:30.641Z,95313.00
2023-07-11T00:54:30.702Z,95314.00
2023-07-11T00:55:30.732Z,95316.00
2023-07-11T00:56:30.827Z,95316.00
2023-07-11T00:57:30.927Z,95314.00
2023-07-11T00:58:31.008Z,95316.00
2023-07-11T00:59:31.051Z,95318.00
2023-07-11T01:00:31.170Z,95314.00
2023-07-11T01:01:31.161Z,95311.00
2023-07-11T01:02:31.206Z,95314.00
2023-07-11T01:03:31.300Z,95313.00
2023-07-11T01:04:31.273Z,95314.00
2023-07-11T01:05:31.309Z,95316.00
2023-07-11T01:06:31.395Z,95314.00
2023-07-11T01:07:31.443Z,95314.00
2023-07-11T01:08:31.528Z,95314.00
2023-07-11T01:09:31.561Z,95314.00
2023-07-11T01:10:31.631Z,95314.00
2023-07-11T01:11:31.686Z,95313.00
2023-07-11T01:12:31.797Z,95314.00
2023-07-11T01:13:31.881Z,95311.00
2023-07-11T01:14:31.955Z,95314.00
2023-07-11T01:15:31.921Z,95313.00
2023-07-11T01:16:32.043Z,95313.00
2023-07-11T01:17:32.109Z,95311.00
2023-07-11T01:18:32.139Z,95309.00
2023-07-11T01:19:32.150Z,95309.00
2023-07-11T01:20:32.206Z,95307.00
2023-07-11T01:21:32.316Z,95305.00
2023-07-11T01:22:32.344Z,95305.00
2023-07-11T01:23:32.425Z,95305.00
2023-07-11T01:24:32.441Z,95303.00
2023-07-11T01:25:32.502Z,95303.00
2023-07-11T01:26:32.553Z,95303.00
2023-07-11T01:27:32.592Z,95301.00
2023-07-11T01:28:32.669Z,95299.00
2023-07-11T01:29:32.676Z,95305.00
2023-07-11T01:30:32.784Z,95303.00
2023-07-11T01:31:32.792Z,95305.00
2023-07-11T01:32:32.838Z,95303.00
2023-07-11T01:33:32.869Z,95303.00
2023-07-11T01:34:32.921Z,95303.00
2023-07-11T01:35:32.946Z,95303.00
2023-07-11T01:36:33.039Z,95303.00
2023-07-11T01:37:33.031Z,95303.00
2023-07-11T01:38:33.096Z,95297.00
2023-07-11T01:39:33.154Z,95303.00
2023-07-11T01:40:33.216Z,95305.00
2023-07-11T01:41:33.214Z,95307.00
2023-07-11T01:42:33.289Z,95307.00
2023-07-11T01:43:33.345Z,95301.00
2023-07-11T01:44:33.392Z,95301.00
2023-07-11T01:45:33.423Z,95303.00
2023-07-11T01:46:33.560Z,95301.00
2023-07-11T01:47:33.609Z,95303.00
2023-07-11T01:48:33.572Z,95305.00
2023-07-11T01:49:33.639Z,95305.00
2023-07-11T01:50:33.636Z,95301.00
2023-07-11T01:51:33.699Z,95303.00
2023-07-11T01:52:33.745Z,95307.00
2023-07-11T01:53:33.812Z,95303.00
2023-07-11T01:54:33.808Z,95301.00
2023-07-11T01:55:33.823Z,95299.00
2023-07-11T01:56:33.893Z,95299.00
2023-07-11T01:57:33.894Z,95299.00
2023-07-11T01:58:34.014Z,95297.00
2023-07-11T01:59:33.965Z,95297.00
2023-07-11T02:00:34.007Z,95299.00
2023-07-11T02:01:34.137Z,95301.00
2023-07-11T02:02:34.151Z,95297.00
2023-07-11T02:03:34.314Z,95295.00
2023-07-11T02:04:34.207Z,95295.00
2023-07-11T02:05:34.245Z,95295.00
2023-07-11T02:06:34.268Z,95293.00
2023-07-11T02:07:34.326Z,95291.00
2023-07-11T02:08:34.320Z,95293.00
2023-07-11T02:09:34.327Z,95293.00
2023-07-11T02:10:34.374Z,95293.00
2023-07-11T02:11:34.391Z,95289.00
2023-07-11T02:12:34.392Z,95289.00
2023-07-11T02:13:34.481Z,95289.00
2023-07-11T02:14:34.414Z,95289.00
2023-07-11T02:15:34.416Z,95289.00
2023-07-11T02:16:34.499Z,95289.00
2023-07-11T02:17:34.782Z,95287.00
2023-07-11T02:18:34.453Z,95291.00
2023-07-11T02:19:34.446Z,95291.00
2023-07-11T02:20:34.487Z,95291.00
2023-07-11T02:21:34.478Z,95291.00
2023-07-11T02:22:34.502Z,95291.00
2023-07-11T02:23:34.573Z,95291.00
2023-07-11T02:24:34.535Z,95291.00
2023-07-11T02:25:34.546Z,95293.00
2023-07-11T02:27:53.213Z,95291.00
2023-07-11T02:28:53.204Z,95289.00
2023-07-11T02:29:53.191Z,95291.00
2023-07-11T02:30:53.199Z,95291.00
2023-07-11T02:31:53.255Z,95291.00
2023-07-11T02:32:53.234Z,95291.00
2023-07-11T02:33:53.189Z,95291.00
2023-07-11T02:34:53.145Z,95293.00
2023-07-11T02:35:53.147Z,95293.00
2023-07-11T02:36:53.164Z,95295.00
2023-07-11T02:37:53.136Z,95291.00
2023-07-11T02:38:53.174Z,95293.00
2023-07-11T02:39:53.117Z,95293.00
2023-07-11T02:40:53.127Z,95293.00
2023-07-11T02:41:53.097Z,95295.00
2023-07-11T02:42:53.142Z,95295.00
2023-07-11T02:43:53.064Z,95295.00
2023-07-11T02:44:53.109Z,95295.00
2023-07-11T02:45:53.161Z,95297.00
2023-07-11T02:46:53.070Z,95297.00
2023-07-11T02:47:53.129Z,95295.00
2023-07-11T02:48:53.080Z,95297.00
2023-07-11T02:49:53.082Z,95295.00
2023-07-11T02:50:53.047Z,95295.00
2023-07-11T02:51:53.024Z,95293.00
2023-07-11T02:52:53.115Z,95293.00
2023-07-11T02:53:53.130Z,95289.00
2023-07-11T02:54:53.227Z,95289.00
2023-07-11T02:55:53.273Z,95287.00
2023-07-11T02:56:53.354Z,95289.00
2023-07-11T02:57:53.406Z,95287.00
2023-07-11T02:58:53.461Z,95287.00
2023-07-11T02:59:53.496Z,95285.00
2023-07-11T03:00:53.608Z,95287.00
2023-07-11T03:01:53.636Z,95285.00
2023-07-11T03:02:53.706Z,95285.00
2023-07-11T03:03:53.801Z,95287.00
2023-07-11T03:04:53.822Z,95287.00
2023-07-11T03:05:53.884Z,95283.00
2023-07-11T03:06:53.928Z,95281.00
2023-07-11T03:07:53.985Z,95285.00
2023-07-11T03:08:54.063Z,95283.00
2023-07-11T03:09:54.106Z,95283.00
2023-07-11T03:10:54.182Z,95283.00
2023-07-11T03:11:54.267Z,95283.00
2023-07-11T03:12:54.338Z,95285.00
2023-07-11T03:13:54.434Z,95285.00
2023-07-11T03:14:54.398Z,95285.00
2023-07-11T03:15:54.504Z,95287.00
2023-07-11T03:16:54.604Z,95285.00
2023-07-11T03:17:54.634Z,95287.00
2023-07-11T03:18:54.622Z,95285.00
2023-07-11T03:19:54.741Z,95285.00
2023-07-11T03:20:54.789Z,95285.00
2023-07-11T03:21:54.797Z,95287.00
2023-07-11T03:22:54.902Z,95287.00
2023-07-11T03:23:54.952Z,95287.00
2023-07-11T03:24:54.942Z,95287.00
2023-07-11T03:25:55.026Z,95287.00
2023-07-11T03:26:55.138Z,95285.00
2023-07-11T03:27:55.153Z,95283.00
2023-07-11T03:28:55.260Z,95281.00
2023-07-11T03:29:55.294Z,95279.00
2023-07-11T03:30:55.504Z,95281.00
2023-07-11T03:31:55.438Z,95281.00
2023-07-11T03:32:55.518Z,95281.00
2023-07-11T03:33:55.531Z,95283.00
2023-07-11T03:35:02.680Z,95281.00
2023-07-11T03:35:56.601Z,95281.00
2023-07-11T03:36:55.594Z,95283.00
2023-07-11T03:37:55.589Z,95281.00
2023-07-11T03:38:55.581Z,95275.00
2023-07-11T03:39:55.573Z,95275.00
2023-07-11T03:40:55.530Z,95275.00
2023-07-11T03:41:55.545Z,95273.00
2023-07-11T03:42:55.558Z,95271.00
2023-07-11T03:43:55.642Z,95271.00
2023-07-11T03:44:55.676Z,95270.00
2023-07-11T03:45:55.723Z,95270.00
2023-07-11T03:46:55.893Z,95270.00
2023-07-11T03:47:55.840Z,95268.00
2023-07-11T03:48:55.893Z,95266.00
2023-07-11T03:49:55.933Z,95268.00
2023-07-11T03:50:56.050Z,95268.00
2023-07-11T03:51:56.079Z,95270.00
2023-07-11T03:52:56.107Z,95268.00
2023-07-11T03:53:56.190Z,95266.00
2023-07-11T03:54:56.264Z,95266.00
2023-07-11T03:55:56.296Z,95264.00
2023-07-11T03:56:56.313Z,95262.00
2023-07-11T03:57:56.404Z,95264.00
2023-07-11T03:58:56.441Z,95262.00
2023-07-11T03:59:56.510Z,95260.00
2023-07-11T04:00:56.531Z,95260.00
2023-07-11T04:01:56.633Z,95273.00
2023-07-11T04:02:56.690Z,95273.00
2023-07-11T04:03:56.795Z,95275.00
2023-07-11T04:04:56.757Z,95273.00
2023-07-11T04:05:56.845Z,95277.00
2023-07-11T04:06:56.874Z,95277.00
2023-07-11T04:07:56.909Z,95279.00
2023-07-11T04:08:56.911Z,95273.00
2023-07-11T04:09:56.939Z,95277.00
2023-07-11T04:10:56.925Z,95273.00
2023-07-11T04:11:56.938Z,95273.00
2023-07-11T04:12:56.911Z,95275.00
2023-07-11T04:13:56.943Z,95273.00
2023-07-11T04:14:56.857Z,95271.00
2023-07-11T04:15:56.879Z,95273.00
2023-07-11T04:16:56.987Z,95273.00
2023-07-11T04:17:56.905Z,95273.00
2023-07-11T04:18:56.870Z,95273.00
2023-07-11T04:19:56.899Z,95273.00
2023-07-11T04:20:56.918Z,95273.00
2023-07-11T04:21:56.912Z,95277.00
2023-07-11T04:22:56.924Z,95281.00
2023-07-11T04:23:56.912Z,95281.00
2023-07-11T04:24:56.928Z,95277.00
2023-07-11T04:25:56.893Z,95281.00
2023-07-11T04:26:56.898Z,95279.00
2023-07-11T04:27:56.952Z,95279.00
2023-07-11T04:28:56.941Z,95281.00
2023-07-11T04:29:56.925Z,95277.00
2023-07-11T04:30:56.944Z,95264.00
2023-07-11T04:31:56.946Z,95266.00
2023-07-11T04:32:56.971Z,95266.00
2023-07-11T04:33:56.973Z,95264.00
2023-07-11T04:34:56.962Z,95264.00
2023-07-11T04:35:56.896Z,95262.00
2023-07-11T04:36:56.922Z,95262.00
2023-07-11T04:37:56.912Z,95260.00
2023-07-11T04:38:56.886Z,95262.00
2023-07-11T04:39:56.924Z,95260.00
2023-07-11T04:40:56.895Z,95260.00
2023-07-11T04:41:56.905Z,95258.00
2023-07-11T04:42:56.906Z,95260.00
2023-07-11T04:43:56.858Z,95260.00
2023-07-11T04:44:56.925Z,95260.00
2023-07-11T04:45:56.941Z,95258.00
2023-07-11T04:46:56.892Z,95254.00
2023-07-11T04:47:56.971Z,95256.00
2023-07-11T04:48:56.892Z,95254.00
2023-07-11T04:49:56.942Z,95250.00
2023-07-11T04:50:56.973Z,95254.00
2023-07-11T04:51:57.084Z,95254.00
2023-07-11T04:52:57.017Z,95262.00
2023-07-11T04:53:57.037Z,95260.00
2023-07-11T04:54:57.095Z,95260.00
2023-07-11T04:55:57.095Z,95258.00
2023-07-11T04:56:57.147Z,95264.00
2023-07-11T04:57:57.155Z,95262.00
2023-07-11T04:58:57.154Z,95262.00
2023-07-11T04:59:57.246Z,95268.00
2023-07-11T05:00:57.284Z,95270.00
2023-07-11T05:01:57.406Z,95266.00
2023-07-11T05:02:57.416Z,95264.00
2023-07-11T05:03:57.427Z,95262.00
2023-07-11T05:04:57.462Z,95262.00
2023-07-11T05:05:57.513Z,95260.00
2023-07-11T05:06:57.614Z,95260.00
2023-07-11T05:07:57.689Z,95260.00
2023-07-11T05:08:57.741Z,95260.00
2023-07-11T05:09:59.491Z,95264.00
2023-07-11T05:10:57.828Z,95262.00
2023-07-11T05:11:57.937Z,95262.00
2023-07-11T05:12:57.972Z,95266.00
2023-07-11T05:13:58.115Z,95264.00
2023-07-11T05:14:58.075Z,95264.00
2023-07-11T05:15:58.239Z,95264.00
2023-07-11T05:16:58.222Z,95262.00
2023-07-11T05:17:58.235Z,95260.00
2023-07-11T05:18:58.287Z,95256.00
2023-07-11T05:19:58.348Z,95256.00
2023-07-11T05:20:58.392Z,95254.00
2023-07-11T05:21:58.495Z,95256.00
2023-07-11T05:22:58.512Z,95256.00
2023-07-11T05:23:58.564Z,95256.00
2023-07-11T05:24:58.661Z,95256.00
2023-07-11T05:25:58.746Z,95254.00
2023-07-11T05:26:58.722Z,95254.00
2023-07-11T05:27:58.802Z,95256.00
2023-07-11T05:28:58.858Z,95254.00
2023-07-11T05:29:58.927Z,95256.00
2023-07-11T05:30:58.973Z,95256.00
2023-07-11T05:31:59.037Z,95252.00
2023-07-11T05:32:59.140Z,95254.00
2023-07-11T05:33:59.138Z,95252.00
2023-07-11T05:34:59.206Z,95250.00
2023-07-11T05:35:59.274Z,95248.00
2023-07-11T05:36:59.316Z,95250.00
2023-07-11T05:37:59.371Z,95250.00
2023-07-11T05:38:59.430Z,95252.00
2023-07-11T05:39:59.549Z,95252.00
2023-07-11T05:40:59.601Z,95250.00
2023-07-11T05:41:59.667Z,95248.00
2023-07-11T05:42:59.713Z,95246.00
2023-07-11T05:43:59.783Z,95248.00
2023-07-11T05:44:59.824Z,95248.00
2023-07-11T05:45:59.962Z,95246.00
2023-07-11T05:46:59.940Z,95246.00
2023-07-11T05:48:00.107Z,95248.00
2023-07-11T05:49:00.050Z,95246.00
2023-07-11T05:50:00.262Z,95248.00
2023-07-11T05:51:00.166Z,95246.00
2023-07-11T05:52:00.238Z,95250.00
2023-07-11T05:53:00.286Z,95246.00
2023-07-11T05:54:00.368Z,95246.00
2023-07-11T05:55:00.469Z,95246.00
2023-07-11T05:56:00.510Z,95246.00
2023-07-11T05:57:00.560Z,95244.00
2023-07-11T05:58:00.596Z,95248.00
2023-07-11T05:59:01.546Z,95246.00
2023-07-11T06:00:00.708Z,95242.00
2023-07-11T06:01:00.788Z,95242.00
2023-07-11T06:02:00.864Z,95238.00
2023-07-11T06:03:00.905Z,95240.00
2023-07-11T06:04:00.992Z,95240.00
2023-07-11T06:05:01.000Z,95240.00
2023-07-11T06:06:01.049Z,95240.00
2023-07-11T06:07:01.107Z,95236.00
2023-07-11T06:08:01.153Z,95236.00
2023-07-11T06:09:01.241Z,95238.00
2023-07-11T06:10:01.298Z,95234.00
2023-07-11T06:11:01.329Z,95236.00
2023-07-11T06:12:01.344Z,95234.00
2023-07-11T06:13:01.407Z,95232.00
2023-07-11T06:14:01.595Z,95234.00
2023-07-11T06:15:01.525Z,95232.00
2023-07-11T06:16:01.630Z,95232.00
2023-07-11T06:17:01.677Z,95232.00
2023-07-11T06:18:01.814Z,95234.00
2023-07-11T06:19:01.761Z,95232.00
2023-07-11T06:20:01.808Z,95234.00
2023-07-11T06:21:01.876Z,95230.00
2023-07-11T06:22:01.881Z,95230.00
2023-07-11T06:23:01.958Z,95230.00
2023-07-11T06:24:02.144Z,95230.00
2023-07-11T06:25:02.063Z,95232.00
2023-07-11T06:26:02.143Z,95228.00
2023-07-11T06:27:02.166Z,95230.00
2023-07-11T06:28:02.272Z,95226.00
2023-07-11T06:29:02.341Z,95224.00
2023-07-11T06:30:02.561Z,95226.00
2023-07-11T06:31:03.168Z,95222.00
2023-07-11T06:32:02.528Z,95222.00
2023-07-11T06:33:02.567Z,95220.00
2023-07-11T06:34:02.580Z,95224.00
2023-07-11T06:35:02.727Z,95224.00
2023-07-11T06:36:02.757Z,95222.00
2023-07-11T06:37:02.757Z,95224.00
2023-07-11T06:38:02.853Z,95224.00
2023-07-11T06:39:02.926Z,95222.00
2023-07-11T06:40:02.983Z,95224.00
2023-07-11T06:41:02.986Z,95222.00
2023-07-11T06:42:02.991Z,95222.00
2023-07-11T06:43:03.017Z,95222.00
2023-07-11T06:44:02.973Z,95224.00
2023-07-11T06:45:03.070Z,95224.00
2023-07-11T06:46:03.100Z,95224.00
2023-07-11T06:47:03.078Z,95226.00
2023-07-11T06:48:03.107Z,95226.00
2023-07-11T06:49:03.131Z,95222.00
2023-07-11T06:50:03.199Z,95220.00
2023-07-11T06:51:03.217Z,95220.00
2023-07-11T06:52:03.276Z,95222.00
2023-07-11T06:53:03.327Z,95224.00
2023-07-11T06:54:03.326Z,95220.00
2023-07-11T06:55:03.381Z,95218.00
2023-07-11T06:56:03.747Z,95218.00
2023-07-11T06:57:03.452Z,95222.00
2023-07-11T06:58:03.489Z,95220.00
2023-07-11T06:59:03.526Z,95220.00
2023-07-11T07:00:03.726Z,95216.00
2023-07-11T07:01:04.001Z,95218.00
2023-07-11T07:02:03.726Z,95215.00
2023-07-11T07:03:03.808Z,95215.00
2023-07-11T07:04:05.851Z,95211.00
2023-07-11T07:05:03.924Z,95211.00
2023-07-11T07:06:03.977Z,95215.00
2023-07-11T07:07:04.111Z,95213.00
2023-07-11T07:08:14.314Z,95209.00
2023-07-11T07:09:05.086Z,95213.00
2023-07-11T07:10:04.142Z,95211.00
2023-07-11T07:11:04.200Z,95213.00
2023-07-11T07:12:04.139Z,95207.00
2023-07-11T07:13:04.077Z,95205.00
2023-07-11T07:14:06.177Z,95205.00
2023-07-11T07:15:04.240Z,95201.00
2023-07-11T07:16:04.291Z,95201.00
2023-07-11T07:17:04.371Z,95199.00
2023-07-11T07:18:04.422Z,95199.00
2023-07-11T07:19:04.377Z,95197.00
2023-07-11T07:20:04.440Z,95197.00
2023-07-11T07:21:04.493Z,95193.00
2023-07-11T07:22:04.458Z,95201.00
2023-07-11T07:23:04.434Z,95195.00
2023-07-11T07:24:04.470Z,95193.00
2023-07-11T07:25:15.668Z,95189.00
2023-07-11T07:26:05.502Z,95189.00
2023-07-11T07:27:13.262Z,95183.00
2023-07-11T07:28:05.513Z,95181.00
2023-07-11T07:29:04.434Z,95179.00
2023-07-11T07:30:04.493Z,95179.00
2023-07-11T07:31:04.742Z,95179.00
2023-07-11T07:32:04.450Z,95177.00
2023-07-11T07:33:04.499Z,95177.00
2023-07-11T07:34:04.436Z,95173.00
2023-07-11T07:35:04.417Z,95171.00
2023-07-11T07:36:04.434Z,95173.00
2023-07-11T07:37:04.442Z,95175.00
2023-07-11T07:38:04.390Z,95175.00
2023-07-11T07:39:04.395Z,95171.00
2023-07-11T07:40:04.422Z,95175.00
2023-07-11T07:41:04.772Z,95173.00
2023-07-11T07:42:04.369Z,95168.00
2023-07-11T07:43:04.379Z,95168.00
2023-07-11T07:44:04.396Z,95168.00
2023-07-11T07:45:04.370Z,95168.00
2023-07-11T07:46:04.463Z,95166.00
2023-07-11T07:47:04.399Z,95168.00
2023-07-11T07:48:04.430Z,95168.00
2023-07-11T07:49:04.379Z,95169.00
2023-07-11T07:50:04.334Z,95168.00
2023-07-11T07:51:04.576Z,95169.00
2023-07-11T07:52:04.342Z,95164.00
2023-07-11T07:53:04.319Z,95166.00
2023-07-11T07:54:04.283Z,95164.00
2023-07-11T07:55:04.313Z,95160.00
2023-07-11T07:56:04.325Z,95160.00
2023-07-11T07:57:04.263Z,95160.00
2023-07-11T07:58:04.284Z,95158.00
2023-07-11T07:59:04.281Z,95160.00
2023-07-11T08:00:04.285Z,95158.00
2023-07-11T08:01:04.482Z,95156.00
2023-07-11T08:02:04.391Z,95154.00
2023-07-11T08:03:04.559Z,95152.00
2023-07-11T08:04:04.577Z,95164.00
2023-07-11T08:05:04.629Z,95162.00
2023-07-11T08:06:15.071Z,95162.00
2023-07-11T08:07:05.591Z,95158.00
2023-07-11T08:08:04.699Z,95158.00
2023-07-11T08:09:04.617Z,95154.00
2023-07-11T08:10:04.643Z,95158.00
2023-07-11T08:11:04.885Z,95154.00
2023-07-11T08:12:04.592Z,95154.00
2023-07-11T08:13:04.600Z,95154.00
2023-07-11T08:14:04.630Z,95154.00
2023-07-11T08:15:04.675Z,95152.00
2023-07-11T08:16:15.284Z,95154.00
2023-07-11T08:17:06.572Z,95150.00
2023-07-11T08:18:04.753Z,95148.00
2023-07-11T08:19:04.699Z,95138.00
2023-07-11T08:20:04.668Z,95136.00
2023-07-11T08:21:04.836Z,95136.00
2023-07-11T08:22:04.684Z,95134.00
2023-07-11T08:23:04.653Z,95132.00
2023-07-11T08:24:04.666Z,95130.00
2023-07-11T08:25:04.743Z,95128.00
2023-07-11T08:26:04.731Z,95126.00
2023-07-11T08:27:04.785Z,95126.00
2023-07-11T08:28:04.849Z,95122.00
2023-07-11T08:29:13.109Z,95120.00
2023-07-11T08:30:05.928Z,95118.00
2023-07-11T08:31:05.078Z,95118.00
2023-07-11T08:32:04.876Z,95116.00
2023-07-11T08:33:04.902Z,95116.00
2023-07-11T08:34:04.873Z,95115.00
2023-07-11T08:35:04.864Z,95111.00
2023-07-11T08:36:04.808Z,95109.00
2023-07-11T08:37:04.803Z,95109.00
2023-07-11T08:38:05.119Z,95113.00
2023-07-11T08:39:04.868Z,95111.00
2023-07-11T08:40:04.843Z,95105.00
2023-07-11T08:41:05.051Z,95103.00
2023-07-11T08:42:04.917Z,95101.00
2023-07-11T08:43:04.957Z,95101.00
2023-07-11T08:44:05.002Z,95101.00
2023-07-11T08:45:05.596Z,95101.00
2023-07-11T08:46:13.426Z,95101.00
2023-07-11T08:47:06.204Z,95101.00
2023-07-11T08:48:05.143Z,95101.00
2023-07-11T08:49:05.043Z,95099.00
2023-07-11T08:50:05.046Z,95099.00
2023-07-11T08:51:05.336Z,95099.00
2023-07-11T08:52:05.042Z,95097.00
2023-07-11T08:53:05.073Z,95099.00
2023-07-11T08:54:05.058Z,95093.00
2023-07-11T08:55:05.031Z,95089.00
2023-07-11T08:56:05.210Z,95091.00
2023-07-11T08:57:04.998Z,95077.00
2023-07-11T08:58:04.994Z,95075.00
2023-07-11T08:59:04.974Z,95071.00
2023-07-11T09:00:04.971Z,95071.00
2023-07-11T09:01:05.114Z,95071.00
2023-07-11T09:02:05.079Z,95068.00
2023-07-11T09:03:05.040Z,95066.00
2023-07-11T09:04:05.063Z,95064.00
2023-07-11T09:05:05.215Z,95066.00
2023-07-11T09:06:05.433Z,95064.00
2023-07-11T09:07:05.059Z,95064.00
2023-07-11T09:08:05.150Z,95062.00
2023-07-11T09:09:05.077Z,95058.00
2023-07-11T09:10:05.079Z,95056.00
2023-07-11T09:11:05.077Z,95052.00
2023-07-11T09:12:05.110Z,95050.00
2023-07-11T09:13:14.506Z,95050.00
2023-07-11T09:14:06.292Z,95046.00
2023-07-11T09:15:05.246Z,95042.00
2023-07-11T09:16:05.384Z,95042.00
2023-07-11T09:17:05.127Z,95042.00
2023-07-11T09:18:05.291Z,95038.00
2023-07-11T09:19:05.170Z,95040.00
2023-07-11T09:20:05.173Z,95040.00
2023-07-11T09:21:05.079Z,95036.00
2023-07-11T09:22:05.088Z,95032.00
2023-07-11T09:23:05.166Z,95032.00
2023-07-11T09:24:20.895Z,95030.00
2023-07-11T09:25:06.195Z,95028.00
2023-07-11T09:26:05.559Z,95026.00
2023-07-11T09:27:05.192Z,95024.00
2023-07-11T09:28:05.193Z,95022.00
2023-07-11T09:29:05.097Z,95022.00
2023-07-11T09:30:05.204Z,95022.00
2023-07-11T09:31:05.155Z,95019.00
2023-07-11T09:32:05.253Z,95015.00
2023-07-11T09:33:05.359Z,95015.00
2023-07-11T09:34:05.648Z,95013.00
2023-07-11T09:35:05.464Z,95009.00
2023-07-11T09:36:05.591Z,95007.00
2023-07-11T09:37:05.472Z,95007.00
2023-07-11T09:38:05.615Z,95009.00
2023-07-11T09:39:05.505Z,95003.00
2023-07-11T09:40:05.587Z,95005.00
2023-07-11T09:41:05.599Z,95003.00
2023-07-11T09:42:05.656Z,95001.00
2023-07-11T09:43:05.715Z,95001.00
2023-07-11T09:44:05.711Z,94999.00
2023-07-11T09:45:05.746Z,94997.00
2023-07-11T09:46:06.356Z,94997.00
2023-07-11T09:47:05.978Z,95001.00
2023-07-11T09:48:05.975Z,94999.00
2023-07-11T09:49:05.850Z,94997.00
2023-07-11T09:50:05.979Z,94993.00
2023-07-11T09:51:13.844Z,94991.00
2023-07-11T09:52:06.925Z,94991.00
2023-07-11T09:53:06.222Z,94989.00
2023-07-11T09:54:07.466Z,94995.00
2023-07-11T09:55:09.405Z,94997.00
2023-07-11T09:56:12.641Z,94995.00
2023-07-11T09:57:06.877Z,94995.00
2023-07-11T09:58:05.854Z,94989.00
2023-07-11T09:59:05.824Z,94991.00
2023-07-11T10:00:21.198Z,94989.00
2023-07-11T10:01:06.917Z,94987.00
2023-07-11T10:02:06.134Z,94989.00
2023-07-11T10:03:05.822Z,94987.00
2023-07-11T10:04:05.819Z,94983.00
2023-07-11T10:05:05.827Z,94987.00
2023-07-11T10:06:06.053Z,94985.00
2023-07-11T10:07:05.767Z,94983.00
2023-07-11T10:08:05.810Z,94983.00
2023-07-11T10:09:05.781Z,94981.00
2023-07-11T10:10:05.855Z,94979.00
2023-07-11T10:11:05.743Z,94977.00
2023-07-11T10:12:05.766Z,94973.00
2023-07-11T10:13:14.228Z,94973.00
2023-07-11T10:14:06.761Z,94971.00
2023-07-11T10:15:05.706Z,94966.00
2023-07-11T10:16:05.910Z,94966.00
2023-07-11T10:17:05.713Z,94962.00
2023-07-11T10:18:05.747Z,94967.00
2023-07-11T10:19:05.667Z,94964.00
2023-07-11T10:20:16.762Z,94966.00
2023-07-11T10:21:06.683Z,94964.00
2023-07-11T10:22:05.701Z,94960.00
2023-07-11T10:23:05.675Z,94960.00
2023-07-11T10:24:05.672Z,94956.00
2023-07-11T10:25:05.802Z,94956.00
2023-07-11T10:26:06.230Z,94952.00
2023-07-11T10:27:05.648Z,94954.00
2023-07-11T10:28:05.642Z,94950.00
2023-07-11T10:29:15.548Z,94948.00
2023-07-11T10:30:06.638Z,94946.00
2023-07-11T10:31:05.757Z,94944.00
2023-07-11T10:32:05.638Z,94942.00
2023-07-11T10:33:16.248Z,94940.00
2023-07-11T10:34:06.742Z,94938.00
2023-07-11T10:35:05.591Z,94938.00
2023-07-11T10:36:05.765Z,94938.00
2023-07-11T10:37:05.616Z,94936.00
2023-07-11T10:38:05.563Z,94932.00
2023-07-11T10:39:05.632Z,94932.00
2023-07-11T10:40:05.576Z,94930.00
2023-07-11T10:41:05.536Z,94928.00
2023-07-11T10:42:05.532Z,94924.00
2023-07-11T10:43:05.605Z,94922.00
2023-07-11T10:44:05.612Z,94919.00
2023-07-11T10:45:05.667Z,94919.00
2023-07-11T10:46:05.964Z,94915.00
2023-07-11T10:47:05.949Z,94915.00
2023-07-11T10:48:05.832Z,94913.00
2023-07-11T10:49:05.793Z,94911.00
2023-07-11T10:50:05.854Z,94907.00
2023-07-11T10:51:05.876Z,94905.00
2023-07-11T10:52:05.888Z,94905.00
2023-07-11T10:53:05.984Z,94901.00
2023-07-11T10:54:05.979Z,94899.00
2023-07-11T10:55:06.001Z,94897.00
2023-07-11T10:56:06.299Z,94897.00
2023-07-11T10:57:06.057Z,94897.00
2023-07-11T10:58:06.120Z,94893.00
2023-07-11T10:59:06.127Z,94889.00
2023-07-11T11:00:06.134Z,94889.00
2023-07-11T11:01:06.347Z,94879.00
2023-07-11T11:02:06.181Z,94879.00
2023-07-11T11:03:06.309Z,94875.00
2023-07-11T11:04:06.286Z,94873.00
2023-07-11T11:05:06.312Z,94873.00
2023-07-11T11:06:06.546Z,94869.00
2023-07-11T11:07:06.288Z,94860.00
2023-07-11T11:08:06.395Z,94864.00
2023-07-11T11:09:06.332Z,94856.00
2023-07-11T11:10:06.298Z,94856.00
2023-07-11T11:11:08.156Z,94854.00
2023-07-11T11:12:06.629Z,94852.00
2023-07-11T11:13:06.336Z,94852.00
2023-07-11T11:14:06.369Z,94856.00
2023-07-11T11:15:06.292Z,94856.00
2023-07-11T11:16:06.618Z,94850.00
2023-07-11T11:17:06.325Z,94848.00
2023-07-11T11:18:06.443Z,94846.00
2023-07-11T11:19:07.361Z,94844.00
2023-07-11T11:20:06.312Z,94842.00
2023-07-11T11:22:07.324Z,94836.00
2023-07-11T11:23:06.307Z,94832.00
2023-07-11T11:24:06.286Z,94830.00
2023-07-11T11:25:06.400Z,94832.00
2023-07-11T11:26:06.413Z,94826.00
2023-07-11T11:27:06.252Z,94824.00
2023-07-11T11:28:06.635Z,94822.00
2023-07-11T11:29:06.334Z,94824.00
2023-07-11T11:30:06.230Z,94822.00
2023-07-11T11:31:06.266Z,94817.00
2023-07-11T11:32:06.252Z,94817.00
2023-07-11T11:33:06.278Z,94815.00
2023-07-11T11:34:06.192Z,94815.00
2023-07-11T11:35:15.387Z,94815.00
2023-07-11T11:36:07.409Z,94811.00
2023-07-11T11:37:06.176Z,94809.00
2023-07-11T11:38:06.285Z,94811.00
2023-07-11T11:39:06.248Z,94809.00
2023-07-11T11:40:06.209Z,94807.00
2023-07-11T11:41:06.494Z,94807.00
2023-07-11T11:42:06.149Z,94805.00
2023-07-11T11:47:36.402Z,94797.00
2023-07-11T11:49:36.528Z,94795.00
2023-07-11T11:52:06.600Z,94793.00
2023-07-11T11:53:06.090Z,94789.00
2023-07-11T11:54:06.103Z,94789.00